EPGD/GDN METAR and TAF weather

Enter ICAO airport designator
Station Type Date Time Source
EPGD METAR 2020/09/28 07:30 UTC NOAA

EPGD 280730Z 20009KT 160V230 9999 SCT010 11/08 Q1014


Station Type Date Time Source
EPGD Decoded METAR 2020/09/28 07:30 UTC NOAA

Gdansk-Rebiechowo, Poland (EPGD) 54-23N 018-28E 138M
Sep 28, 2020 - 03:30 AM EDT / 2020.09.28 0730 UTC
Wind: from the SSW (200 degrees) at 10 MPH (9 KT) (direction variable):0
Visibility: greater than 7 mile(s):0
Sky conditions: partly cloudy
Temperature: 51 F (11 C)
Dew Point: 46 F (8 C)
Relative Humidity: 81%
Pressure (altimeter): 29.94 in. Hg (1014 hPa)
ob: EPGD 280730Z 20009KT 160V230 9999 SCT010 11/08 Q1014
cycle: 7

Station Type Date Time Source
EPGD TAF 2020/09/28 06:33 UTC NOAA

TAF TAF EPGD 280530Z 2806/2906 19010KT 9999 BKN008
BECMG 2806/2809 BKN030
BECMG 2813/2815 13010KT
BECMG 2816/2819 VRB02KT

Example: see airport list